Time;durP1;ratioP1;P1;durP2;ratioP2;P2;SDS_P1;SDS_P2;PMS_P1;PMS_P2;Temp;Humidity;BMP_temperature;BMP_pressure;BME280_temperature;BME280_humidity;BME280_pressure;Samples;Min_cycle;Max_cycle;Signal;HPM_P1;HPM_P2
2021/09/13 00:15:41;;;;;;;7.30;4.07;;;;;;;;;;4803859;28;19954;-68
2021/09/13 00:18:07;;;;;;;7.15;3.40;;;;;;;;;;4134090;34;20428;-68
2021/09/13 00:20:33;;;;;;;4.22;3.83;;;;;;;;;;4136302;34;20111;-68
2021/09/13 00:22:59;;;;;;;7.15;4.00;;;;;;;;;;4136293;34;20406;-68
2021/09/13 00:25:25;;;;;;;6.72;4.35;;;;;;;;;;4135084;34;20519;-69
2021/09/13 00:27:53;;;;;;;5.40;3.95;;;;;;;;;;4123999;34;20099;-65
2021/09/13 00:30:18;;;;;;;8.88;4.05;;;;;;;;;;4134793;34;20289;-65
2021/09/13 00:32:44;;;;;;;8.52;3.95;;;;;;;;;;4136222;34;20134;-69
2021/09/13 00:35:10;;;;;;;5.72;4.32;;;;;;;;;;4136099;34;20135;-65
2021/09/13 00:37:36;;;;;;;5.55;4.15;;;;;;;;;;4134921;34;20545;-68
2021/09/13 00:40:03;;;;;;;6.82;4.15;;;;;;;;;;4134784;34;20126;-66
2021/09/13 00:42:29;;;;;;;6.30;4.40;;;;;;;;;;4135940;34;20296;-65
2021/09/13 00:44:57;;;;;;;5.60;4.30;;;;;;;;;;4135729;34;20550;-64
2021/09/13 00:47:23;;;;;;;7.43;4.05;;;;;;;;;;4135927;34;20104;-66
2021/09/13 00:49:49;;;;;;;5.60;3.67;;;;;;;;;;4136337;34;20111;-64
2021/09/13 00:52:15;;;;;;;6.87;4.10;;;;;;;;;;4135833;34;20111;-64
2021/09/13 00:54:41;;;;;;;6.43;4.30;;;;;;;;;;4123628;34;20558;-64
2021/09/13 00:57:07;;;;;;;5.25;3.60;;;;;;;;;;4134515;34;20147;-65
2021/09/13 00:59:33;;;;;;;3.95;3.50;;;;;;;;;;4134622;34;20099;-68
2021/09/13 01:01:59;;;;;;;8.68;3.60;;;;;;;;;;4135981;34;20122;-69
2021/09/13 01:04:25;;;;;;;8.63;3.87;;;;;;;;;;4134526;34;20550;-68
2021/09/13 01:06:51;;;;;;;6.47;3.75;;;;;;;;;;4123663;34;20123;-65
2021/09/13 01:09:17;;;;;;;5.43;3.70;;;;;;;;;;4134597;34;20146;-69
2021/09/13 01:11:43;;;;;;;5.75;3.42;;;;;;;;;;4134638;34;20127;-68
2021/09/13 01:14:09;;;;;;;6.93;3.40;;;;;;;;;;4123451;34;20132;-66
2021/09/13 01:16:35;;;;;;;4.40;3.00;;;;;;;;;;4139241;34;20119;-68
2021/09/13 01:19:01;;;;;;;8.00;3.55;;;;;;;;;;4149049;34;20114;-64
2021/09/13 01:21:27;;;;;;;5.22;3.47;;;;;;;;;;4149259;34;20576;-65
2021/09/13 01:23:54;;;;;;;7.57;3.83;;;;;;;;;;4138617;34;20115;-68
2021/09/13 01:26:20;;;;;;;4.90;3.55;;;;;;;;;;4151310;34;20219;-69
2021/09/13 01:28:46;;;;;;;4.97;3.25;;;;;;;;;;4151158;34;20099;-69
2021/09/13 01:31:12;;;;;;;7.18;3.47;;;;;;;;;;4151377;34;20208;-69
2021/09/13 01:33:38;;;;;;;6.25;3.10;;;;;;;;;;4151222;34;20130;-65
2021/09/13 01:36:04;;;;;;;7.90;3.30;;;;;;;;;;4151157;34;20111;-65
2021/09/13 01:38:31;;;;;;;5.68;3.70;;;;;;;;;;4138825;34;20657;-65
2021/09/13 01:40:57;;;;;;;7.12;3.78;;;;;;;;;;4127733;34;20215;-68
2021/09/13 01:43:23;;;;;;;5.72;3.42;;;;;;;;;;4151035;34;20221;-65
2021/09/13 01:45:51;;;;;;;7.15;3.37;;;;;;;;;;4138658;34;20099;-65
2021/09/13 01:48:19;;;;;;;5.10;3.42;;;;;;;;;;4151105;34;20103;-70
2021/09/13 01:50:47;;;;;;;6.18;3.22;;;;;;;;;;4138845;34;20122;-65
2021/09/13 01:53:13;;;;;;;7.28;3.62;;;;;;;;;;4138624;34;20168;-70
2021/09/13 01:55:40;;;;;;;6.40;3.72;;;;;;;;;;4138384;34;20404;-66
2021/09/13 01:58:07;;;;;;;5.80;4.00;;;;;;;;;;4151283;34;20628;-66
2021/09/13 02:00:33;;;;;;;4.25;3.00;;;;;;;;;;4150983;34;20310;-70
2021/09/13 02:02:59;;;;;;;6.43;3.45;;;;;;;;;;4150897;34;20523;-66
2021/09/13 02:05:25;;;;;;;10.15;3.92;;;;;;;;;;4151043;34;20202;-65
2021/09/13 02:07:51;;;;;;;4.70;3.25;;;;;;;;;;4150923;34;20514;-69
2021/09/13 02:10:17;;;;;;;6.53;3.72;;;;;;;;;;4151023;34;20092;-65
2021/09/13 02:12:43;;;;;;;7.12;3.80;;;;;;;;;;4127450;34;20159;-65
2021/09/13 02:15:10;;;;;;;10.57;4.32;;;;;;;;;;4138313;34;20127;-70
2021/09/13 02:17:36;;;;;;;7.72;4.75;;;;;;;;;;4138417;34;20206;-70
2021/09/13 02:20:02;;;;;;;6.25;4.07;;;;;;;;;;4127027;34;20103;-69
2021/09/13 02:22:28;;;;;;;7.07;4.22;;;;;;;;;;4150713;34;20107;-66
2021/09/13 02:24:54;;;;;;;6.87;3.60;;;;;;;;;;4150940;34;20510;-65
2021/09/13 02:27:20;;;;;;;5.07;3.80;;;;;;;;;;4138455;34;20206;-65
2021/09/13 02:29:46;;;;;;;9.80;3.95;;;;;;;;;;4150767;34;20440;-70
2021/09/13 02:32:12;;;;;;;5.62;3.87;;;;;;;;;;4150989;34;20215;-70
2021/09/13 02:34:39;;;;;;;5.70;3.78;;;;;;;;;;4137740;34;20103;-69
2021/09/13 02:37:05;;;;;;;4.78;3.55;;;;;;;;;;4150503;34;20223;-68
2021/09/13 02:39:31;;;;;;;5.57;3.80;;;;;;;;;;4150836;34;20158;-66
2021/09/13 02:41:57;;;;;;;4.82;3.80;;;;;;;;;;4150552;34;20134;-65
2021/09/13 02:44:25;;;;;;;4.70;3.87;;;;;;;;;;4150803;34;20115;-70
2021/09/13 02:46:51;;;;;;;6.55;3.78;;;;;;;;;;4138064;34;20649;-69
2021/09/13 02:49:17;;;;;;;6.57;3.90;;;;;;;;;;4138632;34;20139;-66
2021/09/13 02:51:42;;;;;;;6.57;3.60;;;;;;;;;;4150366;34;20231;-66
2021/09/13 02:54:09;;;;;;;7.60;4.25;;;;;;;;;;4150624;34;20145;-70
2021/09/13 02:56:35;;;;;;;7.40;3.92;;;;;;;;;;4150711;34;20099;-70
2021/09/13 02:59:00;;;;;;;5.82;3.67;;;;;;;;;;4150607;34;20122;-70
2021/09/13 03:01:26;;;;;;;4.28;3.35;;;;;;;;;;4150779;34;20143;-70
2021/09/13 03:03:52;;;;;;;7.35;3.80;;;;;;;;;;4150386;34;20103;-64
2021/09/13 03:06:18;;;;;;;3.75;3.37;;;;;;;;;;4150430;34;20130;-66
2021/09/13 03:08:44;;;;;;;7.70;3.40;;;;;;;;;;4150307;34;20145;-69
2021/09/13 03:11:10;;;;;;;5.62;3.60;;;;;;;;;;4137944;34;20235;-65
2021/09/13 03:13:36;;;;;;;8.82;3.60;;;;;;;;;;4137963;34;20528;-70
2021/09/13 03:16:03;;;;;;;9.48;3.10;;;;;;;;;;4150138;34;20138;-74
2021/09/13 03:18:28;;;;;;;5.10;3.08;;;;;;;;;;4137716;34;20115;-66
2021/09/13 03:20:54;;;;;;;7.28;3.20;;;;;;;;;;4150230;34;20149;-71
2021/09/13 03:23:23;;;;;;;5.07;3.40;;;;;;;;;;4138246;34;20134;-73
2021/09/13 03:25:49;;;;;;;8.07;3.30;;;;;;;;;;4137956;34;20223;-69
2021/09/13 03:28:15;;;;;;;6.43;3.50;;;;;;;;;;4150280;34;20154;-71
2021/09/13 03:30:41;;;;;;;9.00;2.92;;;;;;;;;;4150156;34;20122;-67
2021/09/13 03:33:07;;;;;;;6.78;3.03;;;;;;;;;;4149440;34;20144;-68
2021/09/13 03:35:33;;;;;;;5.03;2.95;;;;;;;;;;4135429;34;20125;-67
2021/09/13 03:37:59;;;;;;;5.30;3.28;;;;;;;;;;4150226;34;20227;-65
2021/09/13 03:40:26;;;;;;;7.43;3.40;;;;;;;;;;4149873;34;20180;-69
2021/09/13 03:42:52;;;;;;;8.50;3.10;;;;;;;;;;4150134;34;20131;-68
2021/09/13 03:45:19;;;;;;;5.10;3.17;;;;;;;;;;4149420;34;20122;-67
2021/09/13 03:47:45;;;;;;;6.40;3.62;;;;;;;;;;4137428;34;20135;-66
2021/09/13 03:50:11;;;;;;;12.20;4.70;;;;;;;;;;4137811;34;20127;-67
2021/09/13 03:52:37;;;;;;;4.30;3.85;;;;;;;;;;4137482;34;20470;-66
2021/09/13 03:55:03;;;;;;;7.18;3.28;;;;;;;;;;4126128;34;20115;-67
2021/09/13 03:57:29;;;;;;;6.90;3.10;;;;;;;;;;4149648;34;20114;-65
2021/09/13 03:59:55;;;;;;;3.65;2.97;;;;;;;;;;4150287;34;20112;-66
2021/09/13 04:02:22;;;;;;;9.88;2.92;;;;;;;;;;4149768;34;20139;-67
2021/09/13 04:04:50;;;;;;;10.52;2.58;;;;;;;;;;4137704;34;20126;-67
2021/09/13 04:07:50;;;;;;;7.30;2.22;;;;;;;;;;4149962;34;20215;-66
2021/09/13 04:12:40;;;;;;;8.10;2.85;;;;;;;;;;4149008;34;20218;-67
2021/09/13 04:15:07;;;;;;;6.62;3.12;;;;;;;;;;4150031;34;20126;-66
2021/09/13 04:17:33;;;;;;;4.10;2.28;;;;;;;;;;4149792;34;20502;-67
2021/09/13 04:19:59;;;;;;;6.82;3.42;;;;;;;;;;4137520;34;20099;-67
2021/09/13 04:22:25;;;;;;;4.53;2.90;;;;;;;;;;4149929;34;20143;-68
2021/09/13 04:24:52;;;;;;;7.20;2.30;;;;;;;;;;4149863;34;20100;-67
2021/09/13 04:27:18;;;;;;;6.68;2.75;;;;;;;;;;4137239;34;20207;-67
2021/09/13 04:29:44;;;;;;;5.20;2.22;;;;;;;;;;4149991;34;20110;-68
2021/09/13 04:32:10;;;;;;;2.75;1.85;;;;;;;;;;4137286;34;20127;-66
2021/09/13 04:34:36;;;;;;;0.77;0.77;;;;;;;;;;4149755;34;20127;-67
2021/09/13 04:37:02;;;;;;;2.62;2.00;;;;;;;;;;4149638;34;20134;-67
2021/09/13 04:39:28;;;;;;;1.00;1.00;;;;;;;;;;4149794;34;20108;-65
2021/09/13 04:41:54;;;;;;;5.57;2.58;;;;;;;;;;4149549;34;20159;-66
2021/09/13 04:44:20;;;;;;;2.67;1.83;;;;;;;;;;4149505;34;20127;-68
2021/09/13 04:46:46;;;;;;;0.98;0.98;;;;;;;;;;4149435;34;20123;-68
2021/09/13 04:49:12;;;;;;;1.55;1.30;;;;;;;;;;4137018;34;20143;-65
2021/09/13 04:51:38;;;;;;;4.07;2.55;;;;;;;;;;4149553;34;20138;-67
2021/09/13 04:54:04;;;;;;;3.12;2.28;;;;;;;;;;4149578;34;20147;-65
2021/09/13 04:56:30;;;;;;;12.85;2.62;;;;;;;;;;4149613;34;20547;-66
2021/09/13 04:58:56;;;;;;;1.92;1.45;;;;;;;;;;4151327;34;20126;-66
2021/09/13 05:01:22;;;;;;;1.00;1.00;;;;;;;;;;4151707;34;20099;-66
2021/09/13 05:03:49;;;;;;;3.15;2.30;;;;;;;;;;4139189;34;20108;-69
2021/09/13 05:06:15;;;;;;;0.95;0.95;;;;;;;;;;4151487;34;20133;-70
2021/09/13 05:08:41;;;;;;;0.80;0.80;;;;;;;;;;4151771;34;20147;-71
2021/09/13 05:11:07;;;;;;;6.20;3.15;;;;;;;;;;4151378;34;20107;-66
2021/09/13 05:13:33;;;;;;;7.10;2.87;;;;;;;;;;4137341;34;20579;-66
2021/09/13 05:15:59;;;;;;;5.80;2.60;;;;;;;;;;4151101;34;20110;-66
2021/09/13 05:18:25;;;;;;;3.12;2.22;;;;;;;;;;4138766;34;20131;-64
2021/09/13 05:20:51;;;;;;;5.85;2.67;;;;;;;;;;4151580;34;20219;-71
2021/09/13 05:23:16;;;;;;;3.62;2.70;;;;;;;;;;4151502;34;20103;-67
2021/09/13 05:25:42;;;;;;;5.07;2.70;;;;;;;;;;4151418;34;20598;-73
2021/09/13 05:28:08;;;;;;;4.35;3.28;;;;;;;;;;4139131;34;20119;-69
2021/09/13 05:30:34;;;;;;;6.00;3.60;;;;;;;;;;4151372;34;20194;-68
2021/09/13 05:33:00;;;;;;;5.57;2.83;;;;;;;;;;4151339;34;20126;-68
2021/09/13 05:35:26;;;;;;;4.65;3.30;;;;;;;;;;4151493;34;20110;-68
2021/09/13 05:37:52;;;;;;;9.43;4.10;;;;;;;;;;4151985;34;20111;-70
2021/09/13 05:40:18;;;;;;;7.87;3.35;;;;;;;;;;4138689;34;20099;-74
2021/09/13 05:42:51;;;;;;;4.70;3.70;;;;;;;;;;4151043;34;20115;-68
2021/09/13 05:45:17;;;;;;;6.05;3.65;;;;;;;;;;4136586;34;20107;-69
2021/09/13 05:47:44;;;;;;;4.85;3.10;;;;;;;;;;4150923;34;20141;-69
2021/09/13 05:50:10;;;;;;;4.55;3.05;;;;;;;;;;4151153;34;20533;-73
2021/09/13 05:52:36;;;;;;;5.90;3.85;;;;;;;;;;4138735;34;20123;-68
2021/09/13 05:55:03;;;;;;;6.62;3.25;;;;;;;;;;4138378;34;20118;-68
2021/09/13 05:57:30;;;;;;;1.52;1.17;;;;;;;;;;4138534;34;20459;-67
2021/09/13 05:59:56;;;;;;;3.00;2.50;;;;;;;;;;4151064;34;20115;-64
2021/09/13 06:02:22;;;;;;;8.27;3.37;;;;;;;;;;4138510;34;20127;-68
2021/09/13 06:04:47;;;;;;;8.82;3.90;;;;;;;;;;4151192;34;20115;-73
2021/09/13 06:07:14;;;;;;;5.43;3.62;;;;;;;;;;4150940;34;20476;-70
2021/09/13 06:09:42;;;;;;;3.72;2.25;;;;;;;;;;4150384;34;20228;-72
2021/09/13 06:12:11;;;;;;;4.12;3.28;;;;;;;;;;4138309;34;20239;-70
2021/09/13 06:14:37;;;;;;;12.35;4.07;;;;;;;;;;4150698;34;20518;-67
2021/09/13 06:17:03;;;;;;;5.12;2.85;;;;;;;;;;4150696;34;20143;-69
2021/09/13 06:19:29;;;;;;;7.87;2.95;;;;;;;;;;4151137;34;20165;-75
2021/09/13 06:21:56;;;;;;;6.57;3.67;;;;;;;;;;4138144;34;20632;-67
2021/09/13 06:24:22;;;;;;;6.78;4.55;;;;;;;;;;4150956;34;20125;-68
2021/09/13 06:26:48;;;;;;;7.85;4.72;;;;;;;;;;4138076;34;20119;-69
2021/09/13 06:29:15;;;;;;;8.85;4.50;;;;;;;;;;4138276;34;20231;-72
2021/09/13 06:31:41;;;;;;;7.18;3.90;;;;;;;;;;4150639;34;20182;-68
2021/09/13 06:34:08;;;;;;;9.20;4.62;;;;;;;;;;4138310;34;20126;-72
2021/09/13 06:36:34;;;;;;;8.57;4.07;;;;;;;;;;4138566;34;20120;-73
2021/09/13 06:39:00;;;;;;;6.95;4.07;;;;;;;;;;4150699;34;20250;-68
2021/09/13 06:41:25;;;;;;;6.40;3.90;;;;;;;;;;4137899;34;20197;-67
2021/09/13 06:43:53;;;;;;;10.48;4.40;;;;;;;;;;4150679;34;20134;-64
2021/09/13 06:46:25;;;;;;;8.25;3.92;;;;;;;;;;4138108;34;20103;-68
2021/09/13 06:48:51;;;;;;;8.30;3.67;;;;;;;;;;4150917;34;20483;-70
2021/09/13 06:51:18;;;;;;;7.25;3.10;;;;;;;;;;4138255;34;20130;-70
2021/09/13 06:53:44;;;;;;;5.22;3.58;;;;;;;;;;4138525;34;20556;-63
2021/09/13 06:56:13;;;;;;;9.88;4.45;;;;;;;;;;4137887;34;20108;-63
2021/09/13 06:58:39;;;;;;;7.50;3.75;;;;;;;;;;4138035;34;20659;-67
2021/09/13 07:01:05;;;;;;;3.67;2.55;;;;;;;;;;4137844;34;20099;-67
2021/09/13 07:03:31;;;;;;;5.78;3.15;;;;;;;;;;4150255;34;20135;-66
2021/09/13 07:05:57;;;;;;;7.40;3.80;;;;;;;;;;4150282;34;20518;-67
2021/09/13 07:08:23;;;;;;;11.98;4.12;;;;;;;;;;4150279;34;20110;-67
2021/09/13 07:10:49;;;;;;;7.90;3.72;;;;;;;;;;4150252;34;20127;-66
2021/09/13 07:13:15;;;;;;;7.90;3.72;;;;;;;;;;4137799;34;20127;-67
2021/09/13 07:15:41;;;;;;;5.03;3.85;;;;;;;;;;4150228;34;20567;-68
2021/09/13 07:18:07;;;;;;;10.00;4.82;;;;;;;;;;4150348;34;20540;-67
2021/09/13 07:20:33;;;;;;;9.10;4.80;;;;;;;;;;4149956;34;20528;-66
2021/09/13 07:22:59;;;;;;;5.07;2.58;;;;;;;;;;4137678;34;20129;-66
2021/09/13 07:25:25;;;;;;;1.67;1.35;;;;;;;;;;4150090;34;20122;-65
2021/09/13 07:27:51;;;;;;;4.57;3.10;;;;;;;;;;4137614;34;20527;-66
2021/09/13 07:30:17;;;;;;;8.00;3.33;;;;;;;;;;4150073;34;20191;-67
2021/09/13 07:32:43;;;;;;;5.72;4.28;;;;;;;;;;4150182;34;20523;-67
2021/09/13 07:35:10;;;;;;;4.57;2.75;;;;;;;;;;4150444;34;20158;-68
2021/09/13 07:37:36;;;;;;;9.82;3.37;;;;;;;;;;4150052;34;20526;-70
2021/09/13 07:40:04;;;;;;;2.10;1.90;;;;;;;;;;4138221;34;20180;-75
2021/09/13 07:42:30;;;;;;;8.52;1.67;;;;;;;;;;4150044;34;20312;-72
2021/09/13 07:44:57;;;;;;;1.48;1.37;;;;;;;;;;4137645;34;20107;-69
2021/09/13 07:47:23;;;;;;;8.25;1.62;;;;;;;;;;4126795;34;20227;-72
2021/09/13 07:49:49;;;;;;;8.88;1.33;;;;;;;;;;4150285;34;20554;-69
2021/09/13 07:52:15;;;;;;;0.77;0.77;;;;;;;;;;4137536;34;20118;-71
2021/09/13 07:54:41;;;;;;;0.98;0.98;;;;;;;;;;4150345;34;20218;-70
2021/09/13 07:57:08;;;;;;;1.30;1.20;;;;;;;;;;4137494;34;20131;-70
2021/09/13 07:59:33;;;;;;;0.70;0.70;;;;;;;;;;4137278;34;20119;-70
2021/09/13 08:01:59;;;;;;;2.83;1.83;;;;;;;;;;4149570;34;20146;-72
2021/09/13 08:04:25;;;;;;;1.12;1.08;;;;;;;;;;4149788;34;20228;-68
2021/09/13 08:06:51;;;;;;;8.55;2.78;;;;;;;;;;4137220;34;20129;-68
2021/09/13 08:09:17;;;;;;;5.75;3.50;;;;;;;;;;4149724;34;20558;-67
2021/09/13 08:11:43;;;;;;;0.80;0.80;;;;;;;;;;4149556;34;20103;-72
2021/09/13 08:14:09;;;;;;;3.53;1.77;;;;;;;;;;4137190;34;20131;-68
2021/09/13 08:16:35;;;;;;;1.73;1.50;;;;;;;;;;4136711;34;20534;-72
2021/09/13 08:19:01;;;;;;;2.30;1.60;;;;;;;;;;4137094;34;20146;-71
2021/09/13 08:21:27;;;;;;;4.22;2.55;;;;;;;;;;4136701;34;20200;-71
2021/09/13 08:23:55;;;;;;;1.33;1.23;;;;;;;;;;4150064;34;20131;-70
2021/09/13 08:26:21;;;;;;;1.52;1.42;;;;;;;;;;4136924;34;20115;-71
2021/09/13 08:28:46;;;;;;;3.75;2.20;;;;;;;;;;4149704;34;20496;-68
2021/09/13 08:31:12;;;;;;;4.07;1.50;;;;;;;;;;4136986;34;20114;-69
2021/09/13 08:33:39;;;;;;;0.90;0.90;;;;;;;;;;4149059;34;20115;-69
2021/09/13 08:36:05;;;;;;;3.25;2.00;;;;;;;;;;4136984;34;20095;-73
2021/09/13 08:38:31;;;;;;;1.98;1.77;;;;;;;;;;4149670;34;20207;-69
2021/09/13 08:40:57;;;;;;;4.00;2.40;;;;;;;;;;4149879;34;20102;-69
2021/09/13 08:43:23;;;;;;;2.45;2.03;;;;;;;;;;4149492;34;20100;-67
2021/09/13 08:46:07;;;;;;;3.25;1.73;;;;;;;;;;4137175;34;20447;-72
2021/09/13 08:53:54;;;;;;;3.20;1.92;;;;;;;;;;4149703;34;20115;-72
2021/09/13 08:56:24;;;;;;;3.30;1.75;;;;;;;;;;4137944;34;20455;-70
2021/09/13 08:58:50;;;;;;;2.62;2.08;;;;;;;;;;4137293;34;20119;-70
2021/09/13 09:01:16;;;;;;;2.00;1.48;;;;;;;;;;4137107;34;20101;-72
2021/09/13 09:03:43;;;;;;;3.75;2.62;;;;;;;;;;4149383;34;20106;-71
2021/09/13 09:06:34;;;;;;;3.33;2.00;;;;;;;;;;4149220;34;20121;-73
2021/09/13 09:09:05;;;;;;;2.50;2.17;;;;;;;;;;4137329;34;20119;-69
2021/09/13 09:11:59;;;;;;;2.53;1.70;;;;;;;;;;4136652;34;20099;-67
2021/09/13 09:14:31;;;;;;;1.80;1.70;;;;;;;;;;4149186;34;20307;-70
2021/09/13 09:16:59;;;;;;;5.95;1.98;;;;;;;;;;4149071;34;20095;-66
2021/09/13 09:19:26;;;;;;;2.65;1.87;;;;;;;;;;4149241;34;20106;-71
2021/09/13 09:21:52;;;;;;;6.00;2.12;;;;;;;;;;4136289;34;20528;-69
2021/09/13 09:24:33;;;;;;;6.53;1.87;;;;;;;;;;4149484;34;20130;-72
2021/09/13 09:27:08;;;;;;;2.92;2.25;;;;;;;;;;4149304;34;20205;-69
2021/09/13 09:29:35;;;;;;;3.10;1.70;;;;;;;;;;4137276;34;20115;-67
2021/09/13 09:32:01;;;;;;;2.12;1.70;;;;;;;;;;4149378;34;20428;-66
2021/09/13 09:34:29;;;;;;;0.95;0.95;;;;;;;;;;4150334;34;20551;-68
2021/09/13 09:36:58;;;;;;;1.25;1.17;;;;;;;;;;4149815;34;20202;-73
2021/09/13 09:39:31;;;;;;;2.35;1.52;;;;;;;;;;4150485;34;20191;-70
2021/09/13 09:41:58;;;;;;;3.25;1.37;;;;;;;;;;4144191;34;20135;-74
2021/09/13 09:44:28;;;;;;;6.05;4.20;;;;;;;;;;4138180;34;20200;-73
2021/09/13 09:47:00;;;;;;;8.25;4.55;;;;;;;;;;4151821;34;20121;-69
2021/09/13 09:49:26;;;;;;;2.37;1.90;;;;;;;;;;4139179;34;20460;-68
2021/09/13 09:51:53;;;;;;;2.03;1.65;;;;;;;;;;4127092;34;20206;-66
2021/09/13 09:54:21;;;;;;;1.42;1.33;;;;;;;;;;4138604;34;20154;-68
2021/09/13 09:56:48;;;;;;;12.07;3.70;;;;;;;;;;4150809;34;20308;-66
2021/09/13 09:59:17;;;;;;;8.07;4.18;;;;;;;;;;4138585;34;20570;-72
2021/09/13 10:01:45;;;;;;;4.93;2.65;;;;;;;;;;4138371;34;20220;-67
2021/09/13 10:04:24;;;;;;;8.70;4.32;;;;;;;;;;4138701;34;20139;-76
2021/09/13 10:07:00;;;;;;;17.37;3.67;;;;;;;;;;4138234;34;20099;-73
2021/09/13 10:09:28;;;;;;;3.05;2.17;;;;;;;;;;4138440;34;20190;-71
2021/09/13 10:11:58;;;;;;;5.12;3.60;;;;;;;;;;4150762;34;20190;-68
2021/09/13 10:14:26;;;;;;;7.35;5.00;;;;;;;;;;4138393;34;20439;-68
2021/09/13 10:16:52;;;;;;;2.40;1.98;;;;;;;;;;4138022;34;20114;-67
2021/09/13 10:19:19;;;;;;;4.43;2.40;;;;;;;;;;4150769;34;20223;-66
2021/09/13 10:21:45;;;;;;;8.30;4.15;;;;;;;;;;4138023;34;20081;-67
2021/09/13 10:24:13;;;;;;;8.95;3.75;;;;;;;;;;4138358;34;20103;-68
2021/09/13 10:26:41;;;;;;;6.47;3.58;;;;;;;;;;4138543;34;20186;-67
2021/09/13 10:29:07;;;;;;;8.55;3.65;;;;;;;;;;4138135;34;20107;-67
2021/09/13 10:31:43;;;;;;;6.55;3.90;;;;;;;;;;4150709;34;20211;-67
2021/09/13 10:34:21;;;;;;;;;;;;;;;;;;4150972;34;20122;-66
2021/09/13 10:37:07;;;;;;;6.50;3.25;;;;;;;;;;4150466;34;19998;-68
2021/09/13 10:39:46;;;;;;;4.05;3.10;;;;;;;;;;4150878;34;20130;-66
2021/09/13 10:42:50;;;;;;;8.43;3.53;;;;;;;;;;4138056;34;20107;-67
2021/09/13 10:45:30;;;;;;;61.88;15.18;;;;;;;;;;4137076;34;20602;-67
2021/09/13 10:47:59;;;;;;;48.17;17.50;;;;;;;;;;4124865;34;20146;-66
2021/09/13 10:50:27;;;;;;;163.90;51.53;;;;;;;;;;4137360;34;20120;-67
2021/09/13 10:52:54;;;;;;;182.23;66.32;;;;;;;;;;4124023;34;20417;-67
2021/09/13 10:55:31;;;;;;;178.43;65.82;;;;;;;;;;4124281;34;20452;-67
2021/09/13 10:58:02;;;;;;;185.23;52.38;;;;;;;;;;4137103;34;20523;-63
2021/09/13 11:00:40;;;;;;;138.07;51.88;;;;;;;;;;4137034;34;20127;-66
2021/09/13 11:03:22;;;;;;;109.07;41.08;;;;;;;;;;4136810;34;20486;-65
2021/09/13 11:06:13;;;;;;;107.72;39.67;;;;;;;;;;4136993;34;20122;-65
2021/09/13 11:08:45;;;;;;;115.40;35.22;;;;;;;;;;4136754;34;20116;-65
2021/09/13 11:11:25;;;;;;;105.70;31.98;;;;;;;;;;4136850;34;20108;-65
2021/09/13 11:14:02;;;;;;;79.45;27.75;;;;;;;;;;4136843;34;20130;-62
2021/09/13 11:16:29;;;;;;;83.65;32.47;;;;;;;;;;4136649;34;20460;-62
2021/09/13 11:18:56;;;;;;;57.03;23.25;;;;;;;;;;4132752;34;20143;-62
2021/09/13 11:21:30;;;;;;;77.35;25.27;;;;;;;;;;4136749;34;20115;-62
2021/09/13 11:24:12;;;;;;;66.35;22.15;;;;;;;;;;4136884;34;20236;-66
2021/09/13 11:26:45;;;;;;;39.95;15.38;;;;;;;;;;4136786;34;20497;-65
2021/09/13 11:29:13;;;;;;;50.63;17.27;;;;;;;;;;4135629;34;20150;-64
2021/09/13 11:34:16;;;;;;;;;;;;;;;;;;4687629;28;20102;-63
2021/09/13 11:37:14;;;;;;;60.42;15.68;;;;;;;;;;4155778;34;19966;-67
2021/09/13 11:40:34;;;;;;;23.40;9.27;;;;;;;;;;4138634;34;20135;-63
2021/09/13 11:43:24;;;;;;;94.72;29.48;;;;;;;;;;4145028;34;20103;-65
2021/09/13 11:46:13;;;;;;;61.22;17.98;;;;;;;;;;4148716;34;20111;-68
2021/09/13 11:48:44;;;;;;;81.18;27.58;;;;;;;;;;4149845;34;20529;-66
2021/09/13 11:51:14;;;;;;;80.95;33.67;;;;;;;;;;4147684;34;20245;-68
2021/09/13 11:53:43;;;;;;;85.28;41.17;;;;;;;;;;4146956;34;20146;-67
2021/09/13 11:56:13;;;;;;;60.15;27.95;;;;;;;;;;4146658;34;20111;-67
2021/09/13 11:58:49;;;;;;;132.68;57.47;;;;;;;;;;4137344;34;20545;-67
2021/09/13 12:01:22;;;;;;;80.43;38.05;;;;;;;;;;4149633;34;20107;-68
2021/09/13 12:03:48;;;;;;;80.85;41.35;;;;;;;;;;4150054;34;20127;-67
2021/09/13 12:06:22;;;;;;;67.82;37.15;;;;;;;;;;4149233;34;20511;-68
2021/09/13 12:08:48;;;;;;;66.50;30.15;;;;;;;;;;4147195;34;20107;-68
2021/09/13 12:11:14;;;;;;;73.50;33.35;;;;;;;;;;4146799;34;20225;-69
2021/09/13 12:13:42;;;;;;;49.30;27.95;;;;;;;;;;4146988;34;20111;-69
2021/09/13 12:16:11;;;;;;;42.10;21.95;;;;;;;;;;4149741;34;20107;-69
2021/09/13 12:18:37;;;;;;;44.92;19.95;;;;;;;;;;4150023;34;20576;-69
2021/09/13 12:21:03;;;;;;;127.40;58.13;;;;;;;;;;4145305;34;20523;-69
2021/09/13 12:23:32;;;;;;;20.67;14.13;;;;;;;;;;4139631;34;20559;-69
2021/09/13 12:26:04;;;;;;;18.60;10.68;;;;;;;;;;4147448;34;20135;-66
2021/09/13 12:28:39;;;;;;;86.15;34.92;;;;;;;;;;4150078;34;20106;-64
2021/09/13 12:32:00;;;;;;;27.25;15.07;;;;;;;;;;4144327;34;20179;-71
2021/09/13 12:34:53;;;;;;;30.70;16.83;;;;;;;;;;4146553;34;20503;-68
2021/09/13 12:37:27;;;;;;;64.90;24.45;;;;;;;;;;4146725;34;20110;-68
2021/09/13 12:40:12;;;;;;;23.67;11.73;;;;;;;;;;4146408;34;20123;-67
2021/09/13 12:46:46;;;;;;;13.05;6.10;;;;;;;;;;4145692;34;20130;-68
2021/09/13 12:49:12;;;;;;;15.85;4.90;;;;;;;;;;4149315;34;20123;-66
2021/09/13 12:51:38;;;;;;;11.50;6.37;;;;;;;;;;4148722;34;20104;-67
2021/09/13 12:54:05;;;;;;;11.57;6.57;;;;;;;;;;4147169;34;20550;-67
2021/09/13 12:56:42;;;;;;;13.27;5.28;;;;;;;;;;4148801;34;20207;-64
2021/09/13 12:59:16;;;;;;;11.05;5.90;;;;;;;;;;4147766;34;20228;-66
2021/09/13 13:01:41;;;;;;;13.93;5.47;;;;;;;;;;4147910;34;20115;-67
2021/09/13 13:04:12;;;;;;;7.62;4.32;;;;;;;;;;4147031;34;20482;-67
2021/09/13 13:06:39;;;;;;;7.05;4.60;;;;;;;;;;4143624;34;20206;-66
2021/09/13 13:09:06;;;;;;;4.85;2.70;;;;;;;;;;4144299;34;20552;-66
2021/09/13 13:11:32;;;;;;;7.12;4.47;;;;;;;;;;4145758;34;20261;-66
2021/09/13 13:13:58;;;;;;;9.77;5.32;;;;;;;;;;4147049;34;20124;-66
2021/09/13 13:16:34;;;;;;;9.93;5.15;;;;;;;;;;4146946;34;20199;-66
2021/09/13 13:19:00;;;;;;;9.43;4.43;;;;;;;;;;4149549;34;20099;-66
2021/09/13 13:21:26;;;;;;;8.30;4.00;;;;;;;;;;4151328;34;20110;-66
2021/09/13 13:23:52;;;;;;;10.95;4.12;;;;;;;;;;4149941;34;20514;-66
2021/09/13 13:26:17;;;;;;;9.98;3.95;;;;;;;;;;4151168;34;20119;-66
2021/09/13 13:28:44;;;;;;;15.07;4.85;;;;;;;;;;4149903;34;20142;-66
2021/09/13 13:31:10;;;;;;;7.85;4.28;;;;;;;;;;4149800;34;20206;-67
2021/09/13 13:33:35;;;;;;;9.00;4.95;;;;;;;;;;4151328;34;20115;-67
2021/09/13 13:36:01;;;;;;;8.23;4.35;;;;;;;;;;4151079;34;20126;-67
2021/09/13 13:38:27;;;;;;;7.28;4.53;;;;;;;;;;4149902;34;20465;-67
2021/09/13 13:40:53;;;;;;;6.28;4.35;;;;;;;;;;4151377;34;20099;-66
2021/09/13 13:43:19;;;;;;;5.32;4.22;;;;;;;;;;4151219;34;20135;-67
2021/09/13 13:45:45;;;;;;;10.85;4.47;;;;;;;;;;4151113;34;20511;-66
2021/09/13 13:48:11;;;;;;;11.00;4.68;;;;;;;;;;4151210;34;20559;-66
2021/09/13 13:50:39;;;;;;;7.90;5.28;;;;;;;;;;4151024;34;20131;-67
2021/09/13 13:53:05;;;;;;;11.25;5.20;;;;;;;;;;4151440;34;20459;-67
2021/09/13 13:55:31;;;;;;;19.58;4.78;;;;;;;;;;4150762;34;20234;-67
2021/09/13 13:57:57;;;;;;;13.95;4.45;;;;;;;;;;4148838;34;20220;-65
2021/09/13 14:00:23;;;;;;;7.57;4.62;;;;;;;;;;4147707;34;20121;-65
2021/09/13 14:02:49;;;;;;;6.00;3.97;;;;;;;;;;4166082;34;20107;-66
2021/09/13 14:05:15;;;;;;;10.38;4.97;;;;;;;;;;4147107;34;20098;-66
2021/09/13 14:07:41;;;;;;;8.52;4.72;;;;;;;;;;4147166;34;20150;-66
2021/09/13 14:10:08;;;;;;;8.73;4.35;;;;;;;;;;4150513;34;20103;-66
2021/09/13 14:12:34;;;;;;;8.32;4.22;;;;;;;;;;4149331;34;20122;-66
2021/09/13 14:15:00;;;;;;;10.10;4.90;;;;;;;;;;4145595;34;20122;-66
2021/09/13 14:17:26;;;;;;;8.07;4.80;;;;;;;;;;4140516;34;20119;-69
2021/09/13 14:19:52;;;;;;;7.03;4.43;;;;;;;;;;4144508;34;20259;-67
2021/09/13 14:22:18;;;;;;;7.60;3.75;;;;;;;;;;4150019;34;20116;-67
2021/09/13 14:24:44;;;;;;;19.60;5.12;;;;;;;;;;4150879;34;20150;-67
2021/09/13 14:27:10;;;;;;;7.00;4.47;;;;;;;;;;4150667;34;20584;-67
2021/09/13 14:29:37;;;;;;;8.40;4.43;;;;;;;;;;4148266;34;20569;-67
2021/09/13 14:32:03;;;;;;;15.20;4.80;;;;;;;;;;4150219;34;20119;-67
2021/09/13 14:34:29;;;;;;;7.20;3.67;;;;;;;;;;4150463;34;20210;-67
2021/09/13 14:36:54;;;;;;;5.72;3.83;;;;;;;;;;4145931;34;20223;-67
2021/09/13 14:39:20;;;;;;;10.88;4.47;;;;;;;;;;4147513;34;20121;-67
2021/09/13 14:41:49;;;;;;;7.78;4.70;;;;;;;;;;4147303;34;20099;-67
2021/09/13 14:44:16;;;;;;;5.47;2.80;;;;;;;;;;4147791;34;20122;-67
2021/09/13 14:46:44;;;;;;;6.47;4.25;;;;;;;;;;4148657;34;20198;-67
2021/09/13 14:49:11;;;;;;;6.07;3.85;;;;;;;;;;4150334;34;20219;-67
2021/09/13 14:51:37;;;;;;;7.00;3.83;;;;;;;;;;4150437;34;20092;-67
2021/09/13 14:54:03;;;;;;;7.00;3.40;;;;;;;;;;4150323;34;20182;-67
2021/09/13 14:56:30;;;;;;;10.52;2.97;;;;;;;;;;4147354;34;20449;-67
2021/09/13 14:58:57;;;;;;;7.25;3.95;;;;;;;;;;4149174;34;20106;-67
2021/09/13 15:01:23;;;;;;;5.20;2.53;;;;;;;;;;4148980;34;20540;-67
2021/09/13 15:03:49;;;;;;;10.57;3.62;;;;;;;;;;4149732;34;20123;-67
2021/09/13 15:06:15;;;;;;;6.40;3.92;;;;;;;;;;4149323;34;20220;-67
2021/09/13 15:08:41;;;;;;;6.93;3.15;;;;;;;;;;4150359;34;20552;-67
2021/09/13 15:11:07;;;;;;;4.20;3.08;;;;;;;;;;4150493;34;20276;-67
2021/09/13 15:13:32;;;;;;;4.15;3.35;;;;;;;;;;4148924;34;20142;-67